Time;durP1;ratioP1;P1;durP2;ratioP2;P2;SDS_P1;SDS_P2;PMS_P1;PMS_P2;Temp;Humidity;BMP_temperature;BMP_pressure;BME280_temperature;BME280_humidity;BME280_pressure;Samples;Min_cycle;Max_cycle;Signal;HPM_P1;HPM_P2
2024/04/15 00:01:59;;;;;;;14.45;2.75;;;24.20;38.00;;;;;;5487868;26;21833;-47
2024/04/15 00:04:25;;;;;;;27.63;2.47;;;24.20;38.40;;;;;;5488824;26;20085;-49
2024/04/15 00:06:52;;;;;;;22.38;2.17;;;23.90;39.00;;;;;;5490975;26;20154;-47
2024/04/15 00:09:18;;;;;;;13.77;2.13;;;24.00;39.50;;;;;;5486937;26;20062;-49
2024/04/15 00:11:47;;;;;;;9.95;1.52;;;23.70;39.50;;;;;;5490466;26;20150;-48
2024/04/15 00:14:13;;;;;;;13.38;2.15;;;23.60;39.80;;;;;;5488980;26;20070;-46
2024/04/15 00:16:40;;;;;;;14.23;2.05;;;24.90;40.90;;;;;;5490824;26;20419;-46
2024/04/15 00:19:06;;;;;;;7.00;1.25;;;23.30;40.60;;;;;;5452230;26;20173;-48
2024/04/15 00:21:33;;;;;;;4.72;1.13;;;23.50;40.50;;;;;;5489219;26;20562;-49
2024/04/15 00:23:59;;;;;;;13.70;1.73;;;23.60;41.20;;;;;;5457578;26;20165;-51
2024/04/15 00:26:26;;;;;;;9.77;1.98;;;23.60;41.70;;;;;;5485176;26;20124;-44
2024/04/15 00:28:52;;;;;;;14.45;2.35;;;23.50;42.00;;;;;;5488034;26;20106;-51
2024/04/15 00:31:19;;;;;;;13.85;3.38;;;23.50;42.00;;;;;;5488931;26;20560;-49
2024/04/15 00:33:47;;;;;;;19.27;2.90;;;23.50;42.10;;;;;;5455268;26;20153;-47
2024/04/15 00:36:13;;;;;;;6.60;1.90;;;23.10;42.70;;;;;;5492336;26;20085;-49
2024/04/15 00:38:40;;;;;;;11.65;2.65;;;22.80;49.30;;;;;;5490391;26;20063;-49
2024/04/15 00:41:06;;;;;;;16.92;1.90;;;22.80;43.80;;;;;;5488872;26;20179;-45
2024/04/15 00:43:32;;;;;;;14.80;2.35;;;22.90;43.30;;;;;;5491625;26;20062;-47
2024/04/15 00:45:59;;;;;;;8.88;1.63;;;22.90;43.90;;;;;;5487694;26;20111;-46
2024/04/15 00:48:26;;;;;;;10.13;1.63;;;22.80;44.30;;;;;;5474240;26;20120;-48
2024/04/15 00:50:52;;;;;;;8.05;1.52;;;22.90;44.30;;;;;;5440612;26;20424;-47
2024/04/15 00:53:22;;;;;;;7.95;2.03;;;22.80;44.60;;;;;;5435499;26;20780;-46
2024/04/15 00:55:52;;;;;;;15.93;2.42;;;22.70;45.00;;;;;;5441026;26;20546;-45
2024/04/15 00:58:21;;;;;;;11.90;2.10;;;22.50;45.20;;;;;;5473174;26;20089;-46
2024/04/15 01:00:48;;;;;;;8.85;1.50;;;22.30;45.60;;;;;;5470669;26;20098;-48
2024/04/15 01:03:15;;;;;;;20.65;7.70;;;22.20;45.90;;;;;;5470228;26;20063;-47
2024/04/15 01:05:42;;;;;;;15.23;2.40;;;22.10;46.20;;;;;;5469260;26;20059;-47
2024/04/15 01:08:09;;;;;;;18.85;3.30;;;20.90;49.10;;;;;;5471316;26;19994;-48
2024/04/15 01:10:35;;;;;;;14.77;2.58;;;21.80;47.10;;;;;;5468095;26;20063;-45
2024/04/15 01:13:02;;;;;;;12.80;2.42;;;21.30;47.10;;;;;;5470863;26;20006;-46
2024/04/15 01:15:28;;;;;;;11.13;2.88;;;21.60;47.30;;;;;;5471600;26;20060;-45
2024/04/15 01:17:57;;;;;;;14.82;2.60;;;21.70;47.30;;;;;;5439175;26;20081;-48
2024/04/15 01:20:24;;;;;;;12.45;2.17;;;21.70;47.90;;;;;;5467851;26;20059;-54
2024/04/15 01:23:10;;;;;;;7.88;1.80;;;21.50;47.80;;;;;;5467895;26;20059;-48
2024/04/15 01:25:36;;;;;;;11.65;2.63;;;21.40;48.10;;;;;;5471090;26;20106;-47
2024/04/15 01:28:03;;;;;;;14.77;2.00;;;21.20;48.20;;;;;;5472105;26;20094;-46
2024/04/15 01:30:30;;;;;;;13.60;1.83;;;21.00;49.00;;;;;;5470195;26;20075;-49
2024/04/15 01:32:57;;;;;;;9.95;2.08;;;20.80;49.60;;;;;;5440357;26;20172;-46
2024/04/15 01:35:24;;;;;;;9.27;1.80;;;20.80;50.20;;;;;;5469797;26;20094;-44
2024/04/15 01:37:53;;;;;;;7.90;1.67;;;20.80;51.30;;;;;;5467637;26;20100;-46
2024/04/15 01:40:19;;;;;;;8.18;1.48;;;20.60;50.90;;;;;;5471436;26;20135;-45
2024/04/15 01:42:45;;;;;;;5.75;1.73;;;20.70;51.10;;;;;;5465752;26;20118;-45
2024/04/15 01:45:12;;;;;;;6.40;1.60;;;20.60;51.20;;;;;;5471700;26;20552;-46
2024/04/15 01:47:40;;;;;;;5.85;2.25;;;20.50;51.40;;;;;;5435030;26;20064;-48
2024/04/15 01:50:07;;;;;;;12.27;6.05;;;20.40;51.80;;;;;;5470825;26;20158;-45
2024/04/15 01:52:33;;;;;;;6.72;1.38;;;20.30;52.30;;;;;;5469006;26;20621;-45
2024/04/15 01:55:00;;;;;;;3.83;1.13;;;20.00;52.40;;;;;;5471055;26;20071;-45
2024/04/15 01:57:26;;;;;;;5.97;1.45;;;20.10;52.70;;;;;;5473753;26;20074;-46
2024/04/15 01:59:53;;;;;;;8.43;1.52;;;19.90;53.10;;;;;;5434548;26;21378;-47
2024/04/15 02:02:19;;;;;;;24.85;16.63;;;19.90;52.90;;;;;;5468853;26;20067;-47
2024/04/15 02:04:45;;;;;;;10.48;1.35;;;19.80;52.70;;;;;;5472653;26;20109;-46
2024/04/15 02:07:12;;;;;;;11.18;1.30;;;19.70;53.00;;;;;;5437810;26;20063;-55
2024/04/15 02:09:38;;;;;;;6.38;1.40;;;19.60;53.20;;;;;;5471066;26;20089;-45
2024/04/15 02:12:05;;;;;;;10.45;2.05;;;19.50;53.10;;;;;;5442009;26;20063;-48
2024/04/15 02:14:32;;;;;;;9.40;1.50;;;19.40;53.40;;;;;;5469787;26;20155;-47
2024/04/15 02:16:58;;;;;;;12.05;1.80;;;19.40;53.50;;;;;;5471172;26;20058;-45
2024/04/15 02:19:25;;;;;;;6.38;1.30;;;19.30;53.80;;;;;;5465774;26;20063;-53
2024/04/15 02:21:52;;;;;;;8.55;1.70;;;19.30;54.00;;;;;;5470035;26;20074;-47
2024/04/15 02:24:18;;;;;;;8.02;1.63;;;19.30;54.30;;;;;;5472035;26;20067;-48
2024/04/15 02:26:45;;;;;;;9.77;1.52;;;19.20;54.50;;;;;;5467240;26;20063;-45
2024/04/15 02:29:11;;;;;;;7.13;1.30;;;19.10;54.90;;;;;;5469139;26;20089;-52
2024/04/15 02:31:38;;;;;;;25.13;2.30;;;19.10;55.00;;;;;;5465978;26;20071;-53
2024/04/15 02:34:04;;;;;;;7.63;1.35;;;19.10;55.10;;;;;;5469475;26;20150;-49
2024/04/15 02:36:31;;;;;;;6.93;1.45;;;19.00;55.60;;;;;;5470518;26;20066;-53
2024/04/15 02:38:57;;;;;;;7.03;1.52;;;18.90;55.80;;;;;;5471580;26;20089;-52
2024/04/15 02:41:24;;;;;;;8.45;1.70;;;18.80;55.90;;;;;;5467110;26;20096;-47
2024/04/15 02:43:50;;;;;;;15.68;1.65;;;18.70;55.50;;;;;;5470083;26;20075;-49
2024/04/15 02:46:17;;;;;;;8.95;1.75;;;18.80;56.10;;;;;;5469167;26;20068;-53
2024/04/15 02:48:43;;;;;;;7.30;1.52;;;18.80;56.10;;;;;;5467568;26;21395;-48
2024/04/15 02:51:10;;;;;;;15.13;2.00;;;18.80;56.20;;;;;;5469922;26;20155;-49
2024/04/15 02:53:36;;;;;;;8.55;1.33;;;18.70;56.40;;;;;;5471061;26;20133;-50
2024/04/15 02:56:03;;;;;;;11.18;1.30;;;18.70;56.40;;;;;;5470788;26;20089;-54
2024/04/15 02:58:29;;;;;;;9.13;1.48;;;18.60;56.20;;;;;;5468712;26;20079;-46
2024/04/15 03:00:58;;;;;;;9.70;1.77;;;18.50;56.30;;;;;;5439684;26;20172;-50
2024/04/15 03:03:25;;;;;;;5.07;0.98;;;18.50;56.50;;;;;;5467354;26;20074;-50
2024/04/15 03:05:51;;;;;;;5.97;1.20;;;18.50;55.90;;;;;;5437030;26;20087;-56
2024/04/15 03:08:18;;;;;;;4.20;1.15;;;18.50;56.30;;;;;;5466687;26;20070;-52
2024/04/15 03:10:44;;;;;;;9.63;1.33;;;18.50;55.70;;;;;;5470327;26;20079;-54
2024/04/15 03:13:11;;;;;;;5.45;1.40;;;18.40;55.80;;;;;;5470838;26;20064;-46
2024/04/15 03:15:37;;;;;;;5.53;1.48;;;18.40;56.20;;;;;;5469419;26;20093;-53
2024/04/15 03:18:04;;;;;;;4.80;1.20;;;18.30;55.80;;;;;;5436900;26;20367;-54
2024/04/15 03:20:30;;;;;;;7.80;1.70;;;;;;;;;;5467957;26;20103;-46
2024/04/15 03:22:57;;;;;;;6.53;1.45;;;18.30;55.70;;;;;;5473283;26;20070;-49
2024/04/15 03:25:23;;;;;;;5.65;1.02;;;18.30;56.40;;;;;;5468545;26;20075;-55
2024/04/15 03:27:50;;;;;;;9.48;1.33;;;18.20;56.20;;;;;;5467023;26;20074;-46
2024/04/15 03:30:17;;;;;;;12.60;1.20;;;18.20;56.60;;;;;;5466531;26;20220;-49
2024/04/15 03:32:43;;;;;;;6.40;1.33;;;18.10;56.60;;;;;;5468875;26;20102;-47
2024/04/15 03:35:14;;;;;;;9.95;1.50;;;18.10;56.80;;;;;;5466592;26;20067;-49
2024/04/15 03:37:41;;;;;;;9.55;1.65;;;18.10;56.80;;;;;;5470582;26;20086;-47
2024/04/15 03:40:08;;;;;;;12.70;1.88;;;18.00;57.10;;;;;;5469724;26;20086;-50
2024/04/15 03:42:35;;;;;;;6.57;1.40;;;18.00;57.40;;;;;;5468535;26;20110;-50
2024/04/15 03:45:01;;;;;;;8.38;1.95;;;18.00;57.60;;;;;;5470633;26;20141;-48
2024/04/15 03:47:28;;;;;;;7.72;1.55;;;17.90;57.70;;;;;;5469381;26;20541;-50
2024/04/15 03:49:55;;;;;;;10.05;1.55;;;17.90;58.00;;;;;;5468555;26;20094;-49
2024/04/15 03:52:21;;;;;;;5.15;1.17;;;17.90;58.10;;;;;;5471171;26;20407;-47
2024/04/15 03:54:48;;;;;;;8.10;1.20;;;17.80;58.30;;;;;;5466854;26;20150;-51
2024/04/15 03:57:14;;;;;;;14.70;1.80;;;17.80;58.60;;;;;;5470106;26;20445;-49
2024/04/15 03:59:41;;;;;;;10.73;1.58;;;17.70;58.70;;;;;;5463803;26;20091;-49
2024/04/15 04:02:07;;;;;;;15.68;1.80;;;17.70;59.00;;;;;;5474327;26;20071;-53
2024/04/15 04:04:35;;;;;;;8.13;1.60;;;17.70;59.30;;;;;;5478329;26;20067;-49
2024/04/15 04:07:02;;;;;;;8.35;2.20;;;17.70;59.40;;;;;;5479299;26;20439;-51
2024/04/15 04:09:28;;;;;;;11.50;1.85;;;17.70;59.50;;;;;;5470493;26;20449;-49
2024/04/15 04:11:55;;;;;;;12.10;2.30;;;17.60;59.60;;;;;;5478027;26;20111;-49
2024/04/15 04:14:23;;;;;;;9.55;1.90;;;17.60;60.00;;;;;;5446257;26;20070;-47
2024/04/15 04:16:49;;;;;;;13.43;2.55;;;17.60;60.30;;;;;;5474628;26;20124;-47
2024/04/15 04:19:16;;;;;;;8.02;2.00;;;17.50;60.60;;;;;;5476849;26;20090;-48
2024/04/15 04:21:43;;;;;;;16.90;2.58;;;17.50;61.00;;;;;;5443802;26;20089;-51
2024/04/15 04:24:10;;;;;;;13.05;2.15;;;17.50;61.20;;;;;;5481361;26;20058;-48
2024/04/15 04:26:36;;;;;;;12.45;2.13;;;17.40;61.30;;;;;;5445437;26;20460;-56
2024/04/15 04:29:03;;;;;;;19.38;2.25;;;17.40;61.70;;;;;;5480476;26;20159;-49
2024/04/15 04:31:29;;;;;;;6.43;1.92;;;17.30;62.00;;;;;;5480688;26;20055;-49
2024/04/15 04:33:57;;;;;;;8.45;2.05;;;17.40;62.20;;;;;;5477203;26;20222;-51
2024/04/15 04:36:24;;;;;;;19.98;3.08;;;17.30;62.20;;;;;;5480844;26;20083;-48
2024/04/15 04:38:50;;;;;;;7.78;2.35;;;17.30;62.30;;;;;;5483460;26;20059;-49
2024/04/15 04:41:16;;;;;;;7.55;2.60;;;17.20;62.00;;;;;;5481610;26;20602;-47
2024/04/15 04:43:43;;;;;;;10.93;2.75;;;17.20;61.90;;;;;;5484359;26;20094;-47
2024/04/15 04:46:11;;;;;;;18.17;3.38;;;17.20;62.00;;;;;;5481591;26;20097;-50
2024/04/15 04:48:38;;;;;;;10.93;2.30;;;17.20;62.00;;;;;;5483526;26;20063;-48
2024/04/15 04:51:05;;;;;;;9.63;2.35;;;17.10;62.00;;;;;;5481161;26;20126;-48
2024/04/15 04:53:32;;;;;;;10.45;2.70;;;17.20;62.10;;;;;;5481065;26;20063;-50
2024/04/15 04:56:12;;;;;;;10.20;2.40;;;17.10;62.10;;;;;;5483618;26;20114;-49
2024/04/15 04:58:39;;;;;;;12.50;2.90;;;17.10;62.00;;;;;;5482628;26;20159;-51
2024/04/15 05:01:13;;;;;;;12.52;2.92;;;17.10;62.00;;;;;;5480812;26;20501;-46
2024/04/15 05:03:44;;;;;;;7.40;2.72;;;17.00;62.00;;;;;;5450315;26;20089;-48
2024/04/15 05:06:11;;;;;;;8.27;3.17;;;17.00;61.90;;;;;;5480615;26;20101;-51
2024/04/15 05:08:38;;;;;;;8.80;2.15;;;17.00;61.70;;;;;;5477310;26;20062;-48
2024/04/15 05:11:06;;;;;;;11.60;2.28;;;17.00;61.50;;;;;;5452415;26;20098;-49
2024/04/15 05:13:33;;;;;;;8.88;2.63;;;17.00;61.10;;;;;;5449307;26;20067;-52
2024/04/15 05:16:10;;;;;;;12.32;2.70;;;17.00;61.20;;;;;;5450717;26;20067;-50
2024/04/15 05:18:38;;;;;;;8.07;1.90;;;17.00;61.00;;;;;;5480426;26;20062;-56
2024/04/15 05:21:10;;;;;;;8.45;2.58;;;16.90;60.90;;;;;;5480717;26;20070;-50
2024/04/15 05:23:37;;;;;;;7.90;2.65;;;17.00;60.90;;;;;;5480007;26;20063;-55
2024/04/15 05:26:03;;;;;;;7.00;2.10;;;17.00;60.70;;;;;;5484596;26;20066;-49
2024/04/15 05:28:30;;;;;;;9.70;2.40;;;17.00;60.80;;;;;;5480573;26;20074;-55
2024/04/15 05:30:57;;;;;;;4.80;1.88;;;17.00;60.80;;;;;;5480223;26;20529;-46
2024/04/15 05:33:24;;;;;;;6.63;2.15;;;17.00;60.80;;;;;;5482426;26;20074;-52
2024/04/15 05:35:50;;;;;;;10.43;2.63;;;17.00;60.70;;;;;;5481315;26;20066;-48
2024/04/15 05:38:17;;;;;;;5.43;1.70;;;17.00;60.80;;;;;;5481192;26;20093;-50
2024/04/15 05:40:44;;;;;;;7.70;2.45;;;16.90;60.80;;;;;;5482412;26;20098;-47
2024/04/15 05:43:11;;;;;;;6.20;2.22;;;16.90;60.80;;;;;;5479180;26;20079;-52
2024/04/15 05:45:38;;;;;;;6.32;2.00;;;16.90;61.10;;;;;;5480072;26;20171;-49
2024/04/15 05:48:05;;;;;;;6.13;1.95;;;16.90;61.30;;;;;;5478450;26;20529;-46
2024/04/15 05:50:32;;;;;;;6.32;1.95;;;16.90;61.50;;;;;;5482443;26;20154;-46
2024/04/15 05:52:58;;;;;;;7.30;1.77;;;16.70;61.70;;;;;;5480085;26;20067;-46
2024/04/15 05:55:25;;;;;;;12.15;2.10;;;16.70;61.90;;;;;;5481761;26;20153;-47
2024/04/15 05:57:51;;;;;;;11.25;2.30;;;16.70;61.70;;;;;;5448505;26;20480;-52
2024/04/15 06:00:19;;;;;;;7.25;2.20;;;16.80;61.70;;;;;;5478542;26;20067;-57
2024/04/15 06:02:46;;;;;;;7.60;1.85;;;16.90;61.40;;;;;;5479909;26;20516;-49
2024/04/15 06:05:13;;;;;;;33.42;19.58;;;16.90;61.30;;;;;;5450444;26;20067;-47
2024/04/15 06:07:39;;;;;;;8.57;2.55;;;16.70;61.50;;;;;;5479313;26;20093;-47
2024/04/15 06:10:06;;;;;;;4.72;1.70;;;16.70;62.00;;;;;;5475945;26;20561;-47
2024/04/15 06:12:32;;;;;;;8.77;2.08;;;16.60;62.30;;;;;;5478982;26;20063;-46
2024/04/15 06:14:59;;;;;;;7.45;2.30;;;16.60;62.60;;;;;;5479750;26;20578;-49
2024/04/15 06:17:26;;;;;;;9.63;2.25;;;16.60;62.90;;;;;;5479911;26;20119;-50
2024/04/15 06:19:52;;;;;;;5.93;1.58;;;16.60;62.90;;;;;;5481863;26;20067;-47
2024/04/15 06:22:19;;;;;;;5.82;1.67;;;16.60;62.90;;;;;;5479883;26;20159;-48
2024/04/15 06:24:46;;;;;;;6.80;1.52;;;16.60;62.80;;;;;;5482719;26;20138;-47
2024/04/15 06:27:12;;;;;;;5.53;1.75;;;16.70;62.80;;;;;;5477282;26;20088;-48
2024/04/15 06:29:39;;;;;;;7.30;1.77;;;16.70;62.40;;;;;;5481885;26;20078;-47
2024/04/15 06:32:06;;;;;;;4.90;1.23;;;16.70;62.40;;;;;;5481541;26;20155;-53
2024/04/15 06:34:32;;;;;;;5.38;1.55;;;16.70;62.30;;;;;;5481989;26;20063;-52
2024/04/15 06:36:59;;;;;;;6.28;1.40;;;16.70;62.10;;;;;;5481747;26;20063;-48
2024/04/15 06:39:26;;;;;;;7.05;1.63;;;16.70;61.90;;;;;;5481305;26;20068;-49
2024/04/15 06:41:53;;;;;;;7.65;2.13;;;16.70;61.70;;;;;;5481852;26;20074;-49
2024/04/15 06:44:20;;;;;;;5.90;2.20;;;16.70;61.40;;;;;;5483656;26;20058;-51
2024/04/15 06:46:46;;;;;;;5.97;1.98;;;16.70;61.20;;;;;;5481617;26;20524;-53
2024/04/15 06:49:13;;;;;;;5.68;1.70;;;16.70;61.20;;;;;;5482072;26;20066;-49
2024/04/15 06:51:39;;;;;;;5.88;1.70;;;16.70;61.00;;;;;;5482484;26;20070;-50
2024/04/15 06:54:07;;;;;;;6.18;1.88;;;16.80;60.70;;;;;;5481417;26;20214;-49
2024/04/15 06:56:34;;;;;;;3.63;1.45;;;16.70;60.60;;;;;;5447786;26;20070;-48
2024/04/15 06:59:00;;;;;;;7.22;1.42;;;16.80;60.70;;;;;;5482889;26;20093;-52
2024/04/15 07:01:27;;;;;;;4.82;1.25;;;16.80;60.40;;;;;;5479943;26;20063;-56
2024/04/15 07:03:56;;;;;;;6.43;1.27;;;16.70;60.60;;;;;;5482599;26;20512;-49
2024/04/15 07:06:24;;;;;;;5.40;1.83;;;16.70;60.90;;;;;;5481377;26;20117;-47
2024/04/15 07:08:50;;;;;;;4.75;1.13;;;16.70;60.70;;;;;;5478771;26;20071;-49
2024/04/15 07:11:17;;;;;;;7.90;1.50;;;16.60;60.20;;;;;;5481923;26;20470;-49
2024/04/15 07:13:44;;;;;;;2.88;1.20;;;16.70;60.40;;;;;;5442699;26;20452;-47
2024/04/15 07:16:11;;;;;;;3.58;1.10;;;16.80;59.90;;;;;;5481936;26;20097;-51
2024/04/15 07:18:37;;;;;;;8.40;1.83;;;16.80;59.70;;;;;;5482458;26;20074;-48
2024/04/15 07:21:04;;;;;;;5.05;1.50;;;16.70;59.80;;;;;;5479877;26;20155;-47
2024/04/15 07:23:30;;;;;;;6.15;1.75;;;16.80;60.10;;;;;;5481930;26;20533;-51
2024/04/15 07:26:00;;;;;;;4.05;1.48;;;16.80;60.20;;;;;;5480131;26;20413;-52
2024/04/15 07:28:27;;;;;;;4.57;1.45;;;16.80;60.40;;;;;;5448981;26;20119;-54
2024/04/15 07:31:02;;;;;;;6.40;1.85;;;16.80;60.50;;;;;;5449920;26;20521;-51
2024/04/15 07:33:29;;;;;;;3.72;1.63;;;16.80;60.60;;;;;;5449226;26;20078;-52
2024/04/15 07:35:57;;;;;;;6.55;2.17;;;16.80;60.80;;;;;;5481898;26;20640;-51
2024/04/15 07:38:24;;;;;;;4.82;2.05;;;16.80;61.20;;;;;;5479407;26;20107;-47
2024/04/15 07:40:50;;;;;;;6.55;1.75;;;16.70;61.40;;;;;;5479274;26;20083;-49
2024/04/15 07:43:17;;;;;;;5.95;1.48;;;16.60;61.70;;;;;;5482464;26;20071;-46
2024/04/15 07:45:44;;;;;;;8.07;1.98;;;16.60;61.90;;;;;;5482900;26;20115;-47
2024/04/15 07:48:13;;;;;;;7.15;1.55;;;16.60;61.90;;;;;;5481922;26;20128;-46
2024/04/15 07:50:41;;;;;;;6.75;1.48;;;16.70;62.00;;;;;;5481041;26;20154;-45
2024/04/15 07:53:08;;;;;;;6.82;1.75;;;16.70;62.00;;;;;;5479545;26;20485;-46
2024/04/15 07:55:34;;;;;;;5.13;1.65;;;16.70;61.70;;;;;;5479261;26;20063;-45
2024/04/15 07:58:01;;;;;;;4.18;1.90;;;16.70;61.80;;;;;;5480970;26;20128;-55
2024/04/15 08:00:27;;;;;;;5.80;1.70;;;16.70;62.10;;;;;;5485052;26;20114;-47
2024/04/15 08:02:53;;;;;;;3.80;1.50;;;16.70;61.90;;;;;;5480591;26;20213;-47
2024/04/15 08:05:20;;;;;;;3.55;1.60;;;16.70;62.10;;;;;;5484165;26;20074;-46
2024/04/15 08:07:46;;;;;;;4.88;1.50;;;16.70;62.20;;;;;;5483816;26;20087;-45
2024/04/15 08:10:13;;;;;;;5.22;1.65;;;16.60;62.30;;;;;;5482572;26;20093;-55
2024/04/15 08:12:40;;;;;;;4.85;1.48;;;16.60;63.00;;;;;;5482915;26;20169;-45
2024/04/15 08:15:07;;;;;;;6.93;1.70;;;16.60;62.90;;;;;;5483436;26;20136;-47
2024/04/15 08:17:33;;;;;;;6.50;1.50;;;16.60;63.40;;;;;;5483313;26;20180;-49
2024/04/15 08:20:00;;;;;;;7.35;1.63;;;16.50;63.20;;;;;;5482237;26;20560;-49
2024/04/15 08:22:26;;;;;;;4.25;1.52;;;16.40;63.60;;;;;;5484083;26;20063;-51
2024/04/15 08:24:53;;;;;;;7.13;1.67;;;16.30;63.80;;;;;;5482254;26;20128;-48
2024/04/15 08:27:19;;;;;;;3.75;1.60;;;16.20;64.20;;;;;;5484208;26;20075;-48
2024/04/15 08:29:46;;;;;;;10.40;1.80;;;16.10;64.40;;;;;;5482592;26;20441;-53
2024/04/15 08:32:12;;;;;;;7.65;1.85;;;16.10;64.60;;;;;;5481433;26;20075;-51
2024/04/15 08:34:39;;;;;;;6.38;2.17;;;16.10;64.60;;;;;;5450295;26;20079;-54
2024/04/15 08:37:07;;;;;;;5.30;1.83;;;16.10;64.70;;;;;;5483919;26;20071;-55
2024/04/15 08:39:35;;;;;;;5.45;1.67;;;16.10;64.70;;;;;;5481665;26;20078;-48
2024/04/15 08:42:20;;;;;;;3.17;1.40;;;16.10;64.80;;;;;;5484621;26;20414;-46
2024/04/15 08:44:48;;;;;;;4.53;1.77;;;16.10;65.10;;;;;;5483250;26;20261;-52
2024/04/15 08:47:29;;;;;;;3.25;1.45;;;16.10;65.20;;;;;;5484296;26;20155;-56
2024/04/15 08:49:56;;;;;;;7.50;1.50;;;16.10;65.50;;;;;;5483685;26;20478;-49
2024/04/15 08:52:23;;;;;;;4.43;1.70;;;16.00;65.40;;;;;;5451011;26;20161;-49
2024/04/15 08:54:50;;;;;;;6.07;1.67;;;16.00;65.70;;;;;;5482207;26;20063;-47
2024/04/15 08:57:17;;;;;;;7.55;1.90;;;16.00;65.90;;;;;;5483651;26;20102;-46
2024/04/15 08:59:45;;;;;;;4.50;2.00;;;15.90;66.10;;;;;;5482725;26;20063;-47
2024/04/15 09:02:16;;;;;;;3.78;1.63;;;15.90;66.30;;;;;;5480317;26;20094;-50
2024/04/15 09:04:43;;;;;;;6.30;1.83;;;15.90;66.40;;;;;;5484334;26;20063;-53
2024/04/15 09:07:09;;;;;;;9.75;1.75;;;15.90;66.70;;;;;;5484225;26;20075;-47
2024/04/15 09:09:36;;;;;;;12.63;3.88;;;15.80;66.90;;;;;;5480601;26;20090;-53
2024/04/15 09:12:02;;;;;;;8.13;2.75;;;15.70;67.40;;;;;;5482836;26;20553;-46
2024/04/15 09:14:29;;;;;;;7.95;2.60;;;15.70;67.40;;;;;;5484190;26;20089;-50
2024/04/15 09:16:55;;;;;;;7.00;3.40;;;15.70;67.70;;;;;;5483660;26;20063;-45
2024/04/15 09:19:26;;;;;;;13.52;3.42;;;15.60;68.00;;;;;;5483668;26;20102;-51
2024/04/15 09:22:00;;;;;;;8.07;2.15;;;15.50;68.60;;;;;;5474080;26;20075;-49
2024/04/15 09:24:26;;;;;;;7.88;2.00;;;15.50;69.80;;;;;;5479098;26;20089;-48
2024/04/15 09:26:53;;;;;;;13.35;2.72;;;15.50;70.20;;;;;;5482510;26;20063;-49
2024/04/15 09:29:19;;;;;;;7.57;1.85;;;15.50;70.50;;;;;;5447340;26;20067;-49
2024/04/15 09:31:46;;;;;;;6.03;1.92;;;15.50;70.90;;;;;;5451193;26;20417;-47
2024/04/15 09:34:12;;;;;;;7.20;1.88;;;15.50;71.40;;;;;;5480520;26;20489;-48
2024/04/15 09:36:42;;;;;;;5.60;1.83;;;15.50;71.90;;;;;;5477239;26;20071;-47
2024/04/15 09:39:08;;;;;;;4.15;1.50;;;15.50;72.20;;;;;;5448648;26;20067;-47
2024/04/15 09:41:35;;;;;;;33.72;17.73;;;15.60;72.50;;;;;;5483357;26;20066;-49
2024/04/15 09:44:03;;;;;;;31.70;17.27;;;15.60;72.90;;;;;;5480746;26;20111;-48
2024/04/15 09:46:33;;;;;;;31.33;17.00;;;15.50;73.30;;;;;;5444889;26;20114;-49
2024/04/15 09:49:04;;;;;;;7.25;2.05;;;15.50;73.70;;;;;;5478351;26;20071;-47
2024/04/15 09:51:33;;;;;;;7.05;2.00;;;15.60;74.10;;;;;;5483712;26;20637;-48
2024/04/15 09:54:05;;;;;;;4.47;1.48;;;15.60;74.80;;;;;;5479350;26;20154;-48
2024/04/15 09:56:38;;;;;;;4.22;1.50;;;15.60;75.40;;;;;;5480462;26;20169;-48
2024/04/15 09:59:11;;;;;;;8.25;1.80;;;15.60;75.80;;;;;;5422374;26;20067;-47
2024/04/15 10:01:41;;;;;;;12.23;1.90;;;15.70;76.00;;;;;;5478178;26;20200;-48
2024/04/15 10:04:21;;;;;;;8.65;1.60;;;15.70;76.10;;;;;;5479530;26;20082;-51
2024/04/15 10:06:53;;;;;;;7.07;1.50;;;15.70;76.20;;;;;;5483092;26;20063;-49
2024/04/15 10:09:20;;;;;;;6.45;1.73;;;15.70;76.40;;;;;;5480659;26;20075;-49
2024/04/15 10:11:48;;;;;;;7.88;1.70;;;15.70;76.30;;;;;;5482628;26;20058;-47
2024/04/15 10:14:15;;;;;;;7.07;1.70;;;15.60;76.60;;;;;;5480156;26;20070;-47
2024/04/15 10:16:47;;;;;;;8.25;1.70;;;15.60;76.70;;;;;;5480820;26;20144;-46
2024/04/15 10:19:23;;;;;;;7.10;1.70;;;15.60;76.90;;;;;;5483040;26;20062;-50
2024/04/15 10:21:49;;;;;;;;;;;15.60;77.40;;;;;;5481306;26;20090;-48
2024/04/15 10:24:16;;;;;;;8.95;1.45;;;15.50;78.00;;;;;;5483021;26;20008;-48
2024/04/15 10:26:43;;;;;;;2.45;1.23;;;15.50;78.10;;;;;;5481307;26;20809;-51
2024/04/15 10:29:21;;;;;;;4.55;1.83;;;15.50;78.10;;;;;;5482911;26;20063;-50
2024/04/15 10:31:52;;;;;;;5.93;1.40;;;15.40;78.60;;;;;;5481033;26;20838;-51
2024/04/15 10:34:24;;;;;;;5.20;1.40;;;15.40;79.00;;;;;;5482215;26;20063;-51
2024/04/15 10:36:57;;;;;;;4.85;1.40;;;15.30;79.40;;;;;;5450633;26;20090;-47
2024/04/15 10:39:24;;;;;;;3.90;1.55;;;15.30;79.60;;;;;;5478374;26;20070;-47
2024/04/15 10:41:51;;;;;;;6.97;1.52;;;15.30;79.80;;;;;;5482935;26;20154;-51
2024/04/15 10:44:17;;;;;;;5.82;1.90;;;15.30;80.00;;;;;;5480761;26;20089;-47
2024/04/15 10:46:46;;;;;;;4.10;1.30;;;15.30;80.30;;;;;;5482204;26;20127;-47
2024/04/15 10:49:14;;;;;;;5.45;1.48;;;15.20;80.00;;;;;;5478989;26;20407;-47
2024/04/15 10:51:42;;;;;;;3.97;1.30;;;15.30;80.20;;;;;;5450053;26;20071;-47
2024/04/15 10:54:08;;;;;;;6.88;1.58;;;15.20;80.10;;;;;;5481989;26;20075;-47
2024/04/15 10:56:35;;;;;;;2.53;1.10;;;15.20;79.90;;;;;;5452342;26;20093;-47
2024/04/15 10:59:02;;;;;;;4.47;1.50;;;15.30;80.10;;;;;;5480399;26;20059;-48
2024/04/15 11:01:28;;;;;;;7.38;1.58;;;15.30;80.40;;;;;;5481379;26;20093;-47
2024/04/15 11:03:55;;;;;;;3.05;1.08;;;15.20;80.40;;;;;;5447824;26;20425;-46
2024/04/15 11:06:21;;;;;;;3.72;1.52;;;15.20;80.30;;;;;;5480320;26;20750;-53
2024/04/15 11:08:48;;;;;;;2.63;1.00;;;15.20;80.10;;;;;;5479205;26;20089;-48
2024/04/15 11:11:15;;;;;;;2.85;1.10;;;15.20;80.10;;;;;;5480529;26;20070;-48
2024/04/15 11:13:42;;;;;;;3.65;1.50;;;15.20;80.00;;;;;;5479118;26;20574;-50
2024/04/15 11:16:15;;;;;;;3.63;1.40;;;15.20;80.30;;;;;;5480129;26;20403;-51
2024/04/15 11:18:42;;;;;;;8.25;1.80;;;15.20;80.50;;;;;;5481354;26;20071;-49
2024/04/15 11:21:09;;;;;;;6.05;1.23;;;15.10;81.00;;;;;;5449477;26;20075;-48
2024/04/15 11:23:36;;;;;;;4.50;1.38;;;15.10;81.40;;;;;;5482061;26;20078;-48
2024/04/15 11:26:03;;;;;;;10.95;1.17;;;15.10;81.90;;;;;;5479410;26;20067;-48
2024/04/15 11:28:31;;;;;;;3.80;1.45;;;15.10;82.20;;;;;;5480222;26;20152;-49
2024/04/15 11:30:59;;;;;;;4.28;1.50;;;15.10;82.60;;;;;;5478675;26;20067;-50
2024/04/15 11:33:27;;;;;;;5.20;1.23;;;15.10;82.50;;;;;;5447585;26;20084;-55
2024/04/15 11:35:54;;;;;;;3.45;1.40;;;15.10;82.80;;;;;;5481469;26;20086;-49
2024/04/15 11:38:22;;;;;;;6.25;1.38;;;15.10;83.30;;;;;;5445145;26;20097;-48
2024/04/15 11:40:49;;;;;;;6.57;1.33;;;15.00;83.70;;;;;;5479309;26;20093;-47
2024/04/15 11:43:15;;;;;;;2.35;1.20;;;14.90;84.10;;;;;;5479484;26;20089;-50
2024/04/15 11:45:52;;;;;;;6.82;1.55;;;14.90;84.40;;;;;;5480584;26;20067;-48
2024/04/15 11:48:19;;;;;;;3.17;1.33;;;14.90;84.30;;;;;;5480652;26;20062;-47
2024/04/15 11:50:52;;;;;;;3.63;1.40;;;14.80;84.40;;;;;;5481753;26;20114;-48
2024/04/15 11:53:24;;;;;;;6.10;1.33;;;14.90;84.50;;;;;;5471693;26;20404;-48
2024/04/15 11:55:53;;;;;;;4.28;1.27;;;15.00;84.80;;;;;;5447664;26;20094;-48
2024/04/15 11:58:20;;;;;;;5.45;1.40;;;15.00;85.00;;;;;;5481504;26;20192;-47
2024/04/15 12:00:47;;;;;;;5.78;1.80;;;15.00;85.00;;;;;;5479421;26;21192;-59
2024/04/15 12:03:15;;;;;;;3.40;1.48;;;15.00;84.50;;;;;;5448843;26;20402;-48
2024/04/15 12:05:41;;;;;;;4.38;1.58;;;14.90;84.70;;;;;;5478929;26;20067;-49
2024/04/15 12:08:08;;;;;;;5.03;1.70;;;14.90;85.20;;;;;;5482104;26;20110;-46
2024/04/15 12:10:35;;;;;;;4.07;1.30;;;14.80;85.10;;;;;;5480113;26;20089;-48
2024/04/15 12:13:03;;;;;;;4.43;1.13;;;14.70;84.20;;;;;;5477483;26;20793;-50
2024/04/15 12:15:29;;;;;;;3.03;1.20;;;14.70;83.70;;;;;;5480643;26;20089;-49
2024/04/15 12:17:57;;;;;;;3.92;1.17;;;14.70;83.20;;;;;;5481736;26;20102;-47
2024/04/15 12:20:23;;;;;;;3.42;1.25;;;14.70;83.20;;;;;;5448712;26;20086;-51
2024/04/15 12:22:50;;;;;;;2.17;1.10;;;14.70;83.10;;;;;;5470437;26;20213;-47
2024/04/15 12:25:16;;;;;;;2.90;1.13;;;14.70;82.90;;;;;;5481174;26;20074;-48
2024/04/15 12:27:44;;;;;;;10.32;5.50;;;14.70;82.80;;;;;;5480191;26;20941;-49
2024/04/15 12:30:12;;;;;;;28.42;20.33;;;14.70;82.60;;;;;;5479605;26;20110;-48
2024/04/15 12:32:42;;;;;;;30.80;21.38;;;14.60;82.20;;;;;;5480551;26;20094;-49
2024/04/15 12:35:08;;;;;;;20.17;14.88;;;14.60;81.90;;;;;;5478980;26;20075;-55
2024/04/15 12:37:35;;;;;;;13.82;10.65;;;14.60;81.30;;;;;;5480198;26;20107;-49
2024/04/15 12:40:05;;;;;;;12.88;8.63;;;14.60;81.50;;;;;;5446430;26;20066;-51
2024/04/15 12:42:32;;;;;;;11.60;8.60;;;14.60;81.80;;;;;;5479380;26;20108;-53
2024/04/15 12:44:59;;;;;;;9.75;5.90;;;14.60;81.50;;;;;;5481458;26;20093;-51
2024/04/15 12:47:25;;;;;;;10.10;4.20;;;14.60;81.60;;;;;;5452663;26;20168;-47